Time,TemperatureF,DewpointF,PressureIn,WindDirection,WindDirectionDegrees,WindSpeedMPH,WindSpeedGustMPH,Humidity,HourlyPrecipIn,Conditions,Clouds,dailyrainin,SoftwareType,DateUTC
2013-03-31 00:03:00,63.1,57.9,29.88,East,90,1.6,3.1,83,0.00,,,0.25,WUHU216EASYWX,2013-03-31 05:03:00,
2013-03-31 00:08:00,63.3,58.1,29.88,East,90,0.7,3.1,83,0.00,,,0.00,WUHU216EASYWX,2013-03-31 05:08:00,
2013-03-31 00:13:00,62.6,57.4,29.88,NE,45,2.2,4.5,83,0.00,,,0.00,WUHU216EASYWX,2013-03-31 05:13:00,
2013-03-31 00:18:00,62.4,57.2,29.88,East,90,1.6,4.5,83,0.00,,,0.00,WUHU216EASYWX,2013-03-31 05:18:00,
2013-03-31 00:23:00,62.4,57.2,29.88,East,90,0.7,3.8,83,0.00,,,0.00,WUHU216EASYWX,2013-03-31 05:23:00,
2013-03-31 00:28:00,62.2,57.0,29.88,NE,45,1.6,4.5,83,0.00,,,0.00,WUHU216EASYWX,2013-03-31 05:28:00,
2013-03-31 00:33:00,62.4,56.8,29.88,NE,45,1.6,4.5,82,0.00,,,0.00,WUHU216EASYWX,2013-03-31 05:33:00,
2013-03-31 00:38:00,62.4,56.8,29.88,NE,45,0.7,2.2,82,0.00,,,0.00,WUHU216EASYWX,2013-03-31 05:38:00,
2013-03-31 00:43:00,62.2,56.7,29.89,North,0,0.7,2.2,82,0.00,,,0.00,WUHU216EASYWX,2013-03-31 05:43:00,
2013-03-31 00:48:00,62.1,56.5,29.89,North,0,0.0,1.6,82,0.00,,,0.00,WUHU216EASYWX,2013-03-31 05:48:00,
2013-03-31 00:53:00,61.9,56.7,29.88,East,90,0.7,2.2,83,0.00,,,0.00,WUHU216EASYWX,2013-03-31 05:53:00,
2013-03-31 00:58:00,61.5,56.3,29.88,East,90,0.0,2.2,83,0.00,,,0.00,WUHU216EASYWX,2013-03-31 05:58:00,
2013-03-31 01:03:00,61.3,56.1,29.88,East,90,0.0,0.0,83,0.00,,,0.00,WUHU216EASYWX,2013-03-31 06:03:00,
2013-03-31 01:08:00,60.8,55.9,29.89,NE,45,0.0,0.0,84,0.00,,,0.00,WUHU216EASYWX,2013-03-31 06:08:00,
2013-03-31 01:13:00,60.8,55.9,29.89,NE,45,0.0,0.0,84,0.00,,,0.00,WUHU216EASYWX,2013-03-31 06:13:00,
2013-03-31 01:18:00,60.6,56.1,29.90,NW,315,0.7,2.2,85,0.00,,,0.00,WUHU216EASYWX,2013-03-31 06:18:00,
2013-03-31 01:23:00,60.4,55.9,29.90,SW,225,0.0,2.2,85,0.00,,,0.00,WUHU216EASYWX,2013-03-31 06:23:00,
2013-03-31 01:28:00,59.9,55.8,29.90,South,180,0.0,2.2,86,0.00,,,0.00,WUHU216EASYWX,2013-03-31 06:28:00,
2013-03-31 01:33:00,59.5,55.4,29.90,SW,225,0.0,0.7,86,0.00,,,0.00,WUHU216EASYWX,2013-03-31 06:33:00,
2013-03-31 01:38:00,59.4,55.6,29.90,NW,315,1.6,2.2,87,0.00,,,0.00,WUHU216EASYWX,2013-03-31 06:38:00,
2013-03-31 01:43:00,59.4,55.8,29.90,NE,45,0.7,2.2,88,0.00,,,0.00,WUHU216EASYWX,2013-03-31 06:43:00,
2013-03-31 01:48:00,59.0,55.4,29.91,North,0,0.0,1.6,88,0.00,,,0.00,WUHU216EASYWX,2013-03-31 06:48:00,
2013-03-31 01:53:00,58.3,54.9,29.91,East,90,0.0,0.7,88,0.00,,,0.00,WUHU216EASYWX,2013-03-31 06:53:00,
2013-03-31 01:58:00,58.3,54.9,29.91,East,90,0.0,0.7,88,0.00,,,0.00,WUHU216EASYWX,2013-03-31 06:58:00,
2013-03-31 02:03:00,59.7,56.1,29.91,ENE,68,0.0,0.7,88,0.00,,,0.00,WUHU216EASYWX,2013-03-31 07:03:00,
2013-03-31 02:08:00,59.7,56.1,29.91,ENE,68,0.0,0.7,88,0.00,,,0.00,WUHU216EASYWX,2013-03-31 07:08:00,
2013-03-31 02:13:00,57.6,54.3,29.91,NW,315,0.0,0.7,89,0.00,,,0.00,WUHU216EASYWX,2013-03-31 07:13:00,
2013-03-31 02:18:00,59.4,56.1,29.91,ENE,68,0.0,0.0,89,0.00,,,0.00,WUHU216EASYWX,2013-03-31 07:18:00,
2013-03-31 02:23:00,59.2,55.9,29.90,ENE,68,0.0,0.0,89,0.00,,,0.00,WUHU216EASYWX,2013-03-31 07:23:00,
2013-03-31 02:28:00,59.0,56.1,29.91,ENE,68,0.0,0.0,90,0.00,,,0.00,WUHU216EASYWX,2013-03-31 07:28:00,
2013-03-31 02:33:00,57.7,54.9,29.90,SE,135,0.0,0.7,90,0.00,,,0.00,WUHU216EASYWX,2013-03-31 07:33:00,
2013-03-31 02:38:00,59.0,56.1,29.91,ENE,68,0.0,0.7,90,0.00,,,0.00,WUHU216EASYWX,2013-03-31 07:38:00,
2013-03-31 02:43:00,57.0,54.5,29.90,East,90,0.0,0.7,91,0.00,,,0.00,WUHU216EASYWX,2013-03-31 07:43:00,
2013-03-31 02:48:00,57.4,54.9,29.90,East,90,0.7,1.6,91,0.00,,,0.00,WUHU216EASYWX,2013-03-31 07:48:00,
2013-03-31 02:53:00,57.4,54.9,29.90,East,90,0.7,1.6,91,0.00,,,0.00,WUHU216EASYWX,2013-03-31 07:53:00,
2013-03-31 02:58:00,57.2,54.7,29.90,NE,45,0.0,1.6,91,0.00,,,0.00,WUHU216EASYWX,2013-03-31 07:58:00,
2013-03-31 03:03:00,57.4,54.9,29.89,East,90,0.0,1.6,91,0.00,,,0.00,WUHU216EASYWX,2013-03-31 08:03:00,
2013-03-31 03:08:00,57.4,54.9,29.89,East,90,0.7,1.6,91,0.00,,,0.00,WUHU216EASYWX,2013-03-31 08:08:00,
2013-03-31 03:13:00,57.2,54.7,29.88,SE,135,0.0,1.6,91,0.00,,,0.00,WUHU216EASYWX,2013-03-31 08:13:00,
2013-03-31 03:18:00,57.2,54.7,29.88,East,90,0.0,0.0,91,0.00,,,0.00,WUHU216EASYWX,2013-03-31 08:18:00,
2013-03-31 03:23:00,57.2,54.7,29.88,North,0,0.0,0.0,91,0.00,,,0.00,WUHU216EASYWX,2013-03-31 08:23:00,
2013-03-31 03:28:00,57.2,54.7,29.88,North,0,0.0,0.0,91,0.00,,,0.00,WUHU216EASYWX,2013-03-31 08:28:00,
2013-03-31 03:33:00,57.0,54.5,29.87,SE,135,0.7,1.6,91,0.00,,,0.00,WUHU216EASYWX,2013-03-31 08:33:00,
2013-03-31 03:38:00,57.0,54.5,29.88,North,0,0.0,2.2,91,0.00,,,0.00,WUHU216EASYWX,2013-03-31 08:38:00,
2013-03-31 03:43:00,57.2,54.9,29.88,East,90,1.6,4.5,92,0.00,,,0.00,WUHU216EASYWX,2013-03-31 08:43:00,
2013-03-31 03:48:00,57.2,54.9,29.89,East,90,0.0,4.5,92,0.00,,,0.00,WUHU216EASYWX,2013-03-31 08:48:00,
2013-03-31 03:53:00,57.2,54.9,29.89,NE,45,0.0,2.2,92,0.00,,,0.00,WUHU216EASYWX,2013-03-31 08:53:00,
2013-03-31 03:58:00,57.2,55.2,29.90,SW,225,0.0,1.6,93,0.00,,,0.00,WUHU216EASYWX,2013-03-31 08:58:00,
2013-03-31 04:03:00,57.4,55.4,29.91,NE,45,3.8,9.2,93,0.00,,,0.00,WUHU216EASYWX,2013-03-31 09:03:00,
2013-03-31 04:08:00,57.4,55.4,29.91,NE,45,3.8,9.2,93,0.00,,,0.00,WUHU216EASYWX,2013-03-31 09:08:00,
2013-03-31 04:13:00,57.6,55.6,29.91,West,270,0.7,9.2,93,0.00,,,0.00,WUHU216EASYWX,2013-03-31 09:13:00,
2013-03-31 04:18:00,57.6,55.6,29.92,NW,315,0.7,3.1,93,0.00,,,0.00,WUHU216EASYWX,2013-03-31 09:18:00,
2013-03-31 04:23:00,57.6,55.2,29.93,East,90,0.0,1.6,92,0.00,,,0.00,WUHU216EASYWX,2013-03-31 09:23:00,
2013-03-31 04:28:00,57.6,55.2,29.93,North,0,0.7,2.2,92,0.00,,,0.00,WUHU216EASYWX,2013-03-31 09:28:00,
2013-03-31 04:33:00,57.6,55.2,29.93,North,0,0.7,2.2,92,0.00,,,0.00,WUHU216EASYWX,2013-03-31 09:33:00,
2013-03-31 04:38:00,57.9,55.6,29.93,West,270,0.0,0.7,92,0.00,,,0.00,WUHU216EASYWX,2013-03-31 09:38:00,
2013-03-31 04:43:00,58.1,55.8,29.93,North,0,0.0,1.6,92,0.00,,,0.00,WUHU216EASYWX,2013-03-31 09:43:00,
2013-03-31 04:48:00,58.1,55.8,29.93,West,270,0.0,1.6,92,0.00,,,0.00,WUHU216EASYWX,2013-03-31 09:48:00,
2013-03-31 04:53:00,58.1,55.8,29.93,West,270,0.0,1.6,92,0.00,,,0.00,WUHU216EASYWX,2013-03-31 09:53:00,
2013-03-31 04:58:00,58.3,55.9,29.93,South,180,0.7,1.6,92,0.00,,,0.00,WUHU216EASYWX,2013-03-31 09:58:00,
2013-03-31 05:03:00,58.1,55.8,29.95,NW,315,2.2,3.1,92,0.00,,,0.00,WUHU216EASYWX,2013-03-31 10:03:00,
2013-03-31 05:08:00,58.1,55.8,29.97,NW,315,2.2,3.1,92,0.00,,,0.00,WUHU216EASYWX,2013-03-31 10:08:00,
2013-03-31 05:13:00,58.5,52.3,29.98,SE,135,9.9,19.0,80,0.00,,,0.00,WUHU216EASYWX,2013-03-31 10:13:00,
2013-03-31 05:18:00,58.3,52.2,29.98,North,0,3.1,19.0,80,0.00,,,0.00,WUHU216EASYWX,2013-03-31 10:18:00,
2013-03-31 05:23:00,58.3,51.4,29.98,NE,45,9.2,19.0,78,0.00,,,0.00,WUHU216EASYWX,2013-03-31 10:23:00,
2013-03-31 05:28:00,57.7,50.5,29.98,North,0,8.3,19.0,77,0.00,,,0.00,WUHU216EASYWX,2013-03-31 10:28:00,
2013-03-31 05:33:00,57.4,50.0,29.97,NE,45,3.8,17.5,76,0.00,,,0.00,WUHU216EASYWX,2013-03-31 10:33:00,
2013-03-31 05:38:00,56.7,48.9,29.96,East,90,9.2,21.3,75,0.00,,,0.00,WUHU216EASYWX,2013-03-31 10:38:00,
2013-03-31 05:43:00,55.4,48.0,29.97,East,90,7.6,21.3,76,0.00,,,0.00,WUHU216EASYWX,2013-03-31 10:43:00,
2013-03-31 05:48:00,54.9,47.8,29.98,North,0,4.5,13.7,77,0.00,,,0.00,WUHU216EASYWX,2013-03-31 10:48:00,
2013-03-31 05:53:00,54.7,48.0,29.98,East,90,5.4,13.7,78,0.00,,,0.00,WUHU216EASYWX,2013-03-31 10:53:00,
2013-03-31 05:58:00,54.3,48.0,29.97,NNW,338,4.5,13.7,79,0.00,,,0.00,WUHU216EASYWX,2013-03-31 10:58:00,
2013-03-31 06:03:00,54.0,47.7,29.98,West,270,3.8,9.2,79,0.00,,,0.00,WUHU216EASYWX,2013-03-31 11:03:00,
2013-03-31 06:08:00,54.0,47.7,29.97,West,270,3.8,7.6,79,0.00,,,0.00,WUHU216EASYWX,2013-03-31 11:08:00,
2013-03-31 06:13:00,53.6,47.7,29.97,SE,135,1.6,7.6,80,0.00,,,0.00,WUHU216EASYWX,2013-03-31 11:13:00,
2013-03-31 06:18:00,53.6,48.0,29.96,NE,45,2.2,4.5,81,0.00,,,0.00,WUHU216EASYWX,2013-03-31 11:18:00,
2013-03-31 06:23:00,53.4,47.8,29.96,North,0,2.2,5.4,81,0.00,,,0.00,WUHU216EASYWX,2013-03-31 11:23:00,
2013-03-31 06:28:00,53.6,48.2,29.95,East,90,2.2,5.4,82,0.00,,,0.00,WUHU216EASYWX,2013-03-31 11:28:00,
2013-03-31 06:33:00,53.4,48.4,29.95,NE,45,0.7,3.8,83,0.00,,,0.00,WUHU216EASYWX,2013-03-31 11:33:00,
2013-03-31 06:38:00,53.4,48.4,29.95,North,0,1.6,3.8,83,0.00,,,0.00,WUHU216EASYWX,2013-03-31 11:38:00,
2013-03-31 06:43:00,53.6,48.6,29.96,SW,225,3.8,6.9,83,0.00,,,0.00,WUHU216EASYWX,2013-03-31 11:43:00,
2013-03-31 06:48:00,53.6,48.6,29.96,NE,45,3.8,10.8,83,0.00,,,0.00,WUHU216EASYWX,2013-03-31 11:48:00,
2013-03-31 06:53:00,55.0,50.0,29.98,NE,45,3.8,10.8,83,0.00,,,0.00,WUHU216EASYWX,2013-03-31 11:53:00,
2013-03-31 06:58:00,53.2,47.8,29.97,SW,225,2.2,8.3,82,0.00,,,0.00,WUHU216EASYWX,2013-03-31 11:58:00,
2013-03-31 07:03:00,55.0,49.6,29.97,WNW,293,3.8,8.3,82,0.00,,,0.00,WUHU216EASYWX,2013-03-31 12:03:00,
2013-03-31 07:08:00,55.0,49.6,29.97,WNW,293,3.8,8.3,82,0.00,,,0.00,WUHU216EASYWX,2013-03-31 12:08:00,
2013-03-31 07:13:00,55.0,49.6,29.97,WNW,293,3.8,8.3,82,0.00,,,0.00,WUHU216EASYWX,2013-03-31 12:13:00,
2013-03-31 07:18:00,53.4,47.8,29.97,East,90,1.6,3.1,81,0.00,,,0.00,WUHU216EASYWX,2013-03-31 12:18:00,
2013-03-31 07:23:00,53.4,47.8,29.97,NE,45,1.6,3.8,81,0.00,,,0.00,WUHU216EASYWX,2013-03-31 12:23:00,
2013-03-31 07:28:00,53.4,47.8,29.97,East,90,1.6,4.5,81,0.00,,,0.00,WUHU216EASYWX,2013-03-31 12:28:00,
2013-03-31 07:33:00,53.4,47.5,29.98,North,0,3.1,6.9,80,0.00,,,0.00,WUHU216EASYWX,2013-03-31 12:33:00,
2013-03-31 07:39:00,53.4,47.5,29.99,East,90,2.2,6.9,80,0.00,,,0.00,WUHU216EASYWX,2013-03-31 12:39:00,
2013-03-31 07:44:00,53.4,47.5,29.99,East,90,3.1,6.9,80,0.00,,,0.00,WUHU216EASYWX,2013-03-31 12:44:00,
2013-03-31 07:49:00,53.2,47.3,29.98,East,90,4.5,7.6,80,0.00,,,0.00,WUHU216EASYWX,2013-03-31 12:49:00,
2013-03-31 07:54:00,53.2,47.3,29.99,NW,315,1.6,7.6,80,0.00,,,0.00,WUHU216EASYWX,2013-03-31 12:54:00,
2013-03-31 07:59:00,53.2,47.3,29.99,North,0,1.6,4.5,80,0.00,,,0.00,WUHU216EASYWX,2013-03-31 12:59:00,
2013-03-31 08:04:00,53.1,47.1,29.99,North,0,3.1,5.4,80,0.00,,,0.00,WUHU216EASYWX,2013-03-31 13:04:00,
2013-03-31 08:09:00,53.1,47.1,30.00,North,0,3.1,5.4,80,0.00,,,0.00,WUHU216EASYWX,2013-03-31 13:09:00,
2013-03-31 08:14:00,52.9,46.9,30.00,NE,45,2.2,5.4,80,0.00,,,0.00,WUHU216EASYWX,2013-03-31 13:14:00,
2013-03-31 08:19:00,53.4,47.5,30.00,North,0,5.4,10.8,80,0.00,,,0.00,WUHU216EASYWX,2013-03-31 13:19:00,
2013-03-31 08:24:00,54.5,47.8,30.00,North,0,1.6,10.8,78,0.00,,,0.00,WUHU216EASYWX,2013-03-31 13:24:00,
2013-03-31 08:29:00,55.0,47.7,30.00,West,270,1.6,4.5,76,0.00,,,0.00,WUHU216EASYWX,2013-03-31 13:29:00,
2013-03-31 08:34:00,55.0,47.7,30.00,West,270,1.6,3.8,76,0.00,,,0.00,WUHU216EASYWX,2013-03-31 13:34:00,
2013-03-31 08:39:00,55.2,47.5,29.99,NE,45,5.4,8.3,75,0.00,,,0.00,WUHU216EASYWX,2013-03-31 13:39:00,
2013-03-31 08:44:00,55.4,48.0,29.99,East,90,1.6,8.3,76,0.00,,,0.00,WUHU216EASYWX,2013-03-31 13:44:00,
2013-03-31 08:49:00,55.9,47.5,29.99,East,90,5.4,10.8,73,0.00,,,0.00,WUHU216EASYWX,2013-03-31 13:49:00,
2013-03-31 08:54:00,56.7,47.5,29.98,East,90,4.5,10.8,71,0.00,,,0.00,WUHU216EASYWX,2013-03-31 13:54:00,
2013-03-31 08:59:00,56.8,47.1,29.99,East,90,3.8,9.2,70,0.00,,,0.00,WUHU216EASYWX,2013-03-31 13:59:00,
2013-03-31 09:04:00,57.6,47.1,29.99,NW,315,3.8,9.2,68,0.00,,,0.00,WUHU216EASYWX,2013-03-31 14:04:00,
2013-03-31 09:09:00,59.0,46.9,29.99,NE,45,5.4,9.9,64,0.00,,,0.00,WUHU216EASYWX,2013-03-31 14:09:00,
2013-03-31 09:14:00,59.4,47.3,29.99,NE,45,4.5,9.9,64,0.00,,,0.00,WUHU216EASYWX,2013-03-31 14:14:00,
2013-03-31 09:19:00,60.1,47.5,29.99,NE,45,1.6,8.3,63,0.00,,,0.00,WUHU216EASYWX,2013-03-31 14:19:00,
2013-03-31 14:47:00,72.9,41.4,29.98,NW,315,2.2,4.5,32,0.00,,,0.00,WUHU216EASYWX,2013-03-31 19:47:00,
2013-03-31 14:52:00,72.5,41.0,29.98,North,0,3.8,7.6,32,0.00,,,0.00,WUHU216EASYWX,2013-03-31 19:52:00,
2013-03-31 14:57:00,73.6,40.3,29.98,North,0,3.1,7.6,30,0.00,,,0.00,WUHU216EASYWX,2013-03-31 19:57:00,
2013-03-31 15:02:00,73.0,39.0,29.98,North,0,2.2,6.0,29,0.00,,,0.00,WUHU216EASYWX,2013-03-31 20:02:00,
2013-03-31 15:07:00,73.0,39.0,29.98,North,0,2.2,4.5,29,0.00,,,0.00,WUHU216EASYWX,2013-03-31 20:07:00,
2013-03-31 15:12:00,73.0,39.7,29.98,North,0,4.5,9.9,30,0.00,,,0.00,WUHU216EASYWX,2013-03-31 20:12:00,
2013-03-31 15:17:00,73.0,40.6,29.98,NW,315,2.2,9.9,31,0.00,,,0.00,WUHU216EASYWX,2013-03-31 20:17:00,
2013-03-31 15:22:00,73.0,39.0,29.97,SW,225,3.1,6.9,29,0.00,,,0.00,WUHU216EASYWX,2013-03-31 20:22:00,
2013-03-31 15:27:00,73.2,40.8,29.97,North,0,3.8,8.3,31,0.00,,,0.00,WUHU216EASYWX,2013-03-31 20:27:00,
2013-03-31 15:32:00,73.6,39.4,29.97,WNW,293,3.8,8.3,29,0.00,,,0.00,WUHU216EASYWX,2013-03-31 20:32:00,
2013-03-31 15:37:00,73.6,41.2,29.97,East,90,1.6,8.3,31,0.00,,,0.00,WUHU216EASYWX,2013-03-31 20:37:00,
2013-03-31 15:42:00,74.7,41.2,29.97,SE,135,2.2,5.4,30,0.00,,,0.00,WUHU216EASYWX,2013-03-31 20:42:00,
2013-03-31 15:47:00,74.3,41.7,29.97,NW,315,2.2,5.4,31,0.00,,,0.00,WUHU216EASYWX,2013-03-31 20:47:00,
2013-03-31 15:52:00,74.1,40.8,29.96,NW,315,3.8,7.6,30,0.00,,,0.00,WUHU216EASYWX,2013-03-31 20:52:00,
2013-03-31 15:57:00,73.8,41.4,29.96,South,180,2.2,7.6,31,0.00,,,0.00,WUHU216EASYWX,2013-03-31 20:57:00,
2013-03-31 16:02:00,74.7,41.2,29.96,NE,45,3.8,7.6,30,0.00,,,0.00,WUHU216EASYWX,2013-03-31 21:02:00,
2013-03-31 16:07:00,74.7,41.2,29.96,NE,45,3.8,7.6,30,0.00,,,0.00,WUHU216EASYWX,2013-03-31 21:07:00,
2013-03-31 16:12:00,74.3,41.7,29.96,SE,135,3.1,7.6,31,0.00,,,0.00,WUHU216EASYWX,2013-03-31 21:12:00,
2013-03-31 16:17:00,75.0,41.5,29.96,North,0,1.6,6.0,30,0.00,,,0.00,WUHU216EASYWX,2013-03-31 21:17:00,
2013-03-31 16:22:00,75.4,42.6,29.96,West,270,3.1,6.0,31,0.00,,,0.00,WUHU216EASYWX,2013-03-31 21:22:00,
2013-03-31 16:27:00,74.7,42.1,29.96,East,90,3.8,7.6,31,0.00,,,0.00,WUHU216EASYWX,2013-03-31 21:27:00,
2013-03-31 16:32:00,74.7,42.1,29.95,SE,135,1.6,7.6,31,0.00,,,0.00,WUHU216EASYWX,2013-03-31 21:32:00,
2013-03-31 16:38:00,74.3,41.7,29.95,East,90,3.8,9.2,31,0.00,,,0.00,WUHU216EASYWX,2013-03-31 21:38:00,
2013-03-31 16:43:00,73.4,41.7,29.95,North,0,3.8,9.9,32,0.00,,,0.00,WUHU216EASYWX,2013-03-31 21:43:00,
2013-03-31 16:48:00,74.3,41.7,29.95,West,270,4.5,9.9,31,0.00,,,0.00,WUHU216EASYWX,2013-03-31 21:48:00,
2013-03-31 16:53:00,73.4,41.7,29.95,NW,315,3.1,9.2,32,0.00,,,0.00,WUHU216EASYWX,2013-03-31 21:53:00,
2013-03-31 16:58:00,73.2,42.4,29.94,North,0,0.7,9.2,33,0.00,,,0.00,WUHU216EASYWX,2013-03-31 21:58:00,
2013-03-31 17:03:00,73.9,41.5,29.94,North,0,3.1,6.0,31,0.00,,,0.00,WUHU216EASYWX,2013-03-31 22:03:00,
2013-03-31 17:08:00,73.9,41.5,29.94,North,0,3.1,6.0,31,0.00,,,0.00,WUHU216EASYWX,2013-03-31 22:08:00,
2013-03-31 17:13:00,73.8,42.1,29.94,East,90,1.6,6.0,32,0.00,,,0.00,WUHU216EASYWX,2013-03-31 22:13:00,
2013-03-31 17:18:00,73.0,41.5,29.94,North,0,3.1,5.4,32,0.00,,,0.00,WUHU216EASYWX,2013-03-31 22:18:00,
2013-03-31 17:23:00,72.9,42.1,29.94,North,0,2.2,5.4,33,0.00,,,0.00,WUHU216EASYWX,2013-03-31 22:23:00,
2013-03-31 17:28:00,73.8,42.1,29.94,East,90,0.7,3.8,32,0.00,,,0.00,WUHU216EASYWX,2013-03-31 22:28:00,
2013-03-31 17:33:00,74.3,41.7,29.94,NE,45,0.7,3.8,31,0.00,,,0.00,WUHU216EASYWX,2013-03-31 22:33:00,
2013-03-31 17:38:00,75.2,40.8,29.94,North,0,2.2,5.4,29,0.00,,,0.00,WUHU216EASYWX,2013-03-31 22:38:00,
2013-03-31 17:43:00,75.0,41.5,29.94,West,270,2.2,5.4,30,0.00,,,0.00,WUHU216EASYWX,2013-03-31 22:43:00,
2013-03-31 17:48:00,74.5,41.0,29.94,North,0,0.7,4.5,30,0.00,,,0.00,WUHU216EASYWX,2013-03-31 22:48:00,
2013-03-31 17:53:00,74.3,41.0,29.94,North,0,0.7,3.1,30,0.00,,,0.00,WUHU216EASYWX,2013-03-31 22:53:00,
2013-03-31 17:58:00,75.7,41.4,29.93,SW,225,0.0,3.1,29,0.00,,,0.00,WUHU216EASYWX,2013-03-31 22:58:00,
2013-03-31 18:03:00,75.9,40.5,29.93,North,0,2.2,5.4,28,0.00,,,0.00,WUHU216EASYWX,2013-03-31 23:03:00,
2013-03-31 18:08:00,75.9,40.5,29.93,North,0,2.2,5.4,28,0.00,,,0.00,WUHU216EASYWX,2013-03-31 23:08:00,
2013-03-31 18:13:00,74.1,41.5,29.93,East,90,3.1,5.4,31,0.00,,,0.00,WUHU216EASYWX,2013-03-31 23:13:00,
2013-03-31 18:18:00,74.1,41.5,29.93,SE,135,1.6,5.4,31,0.00,,,0.00,WUHU216EASYWX,2013-03-31 23:18:00,
2013-03-31 18:23:00,73.2,40.8,29.93,NE,45,5.4,8.3,31,0.00,,,0.00,WUHU216EASYWX,2013-03-31 23:23:00,
2013-03-31 18:28:00,73.6,41.2,29.93,SE,135,1.6,8.3,31,0.00,,,0.00,WUHU216EASYWX,2013-03-31 23:28:00,
2013-03-31 18:33:00,72.9,41.4,29.93,East,90,0.0,3.1,32,0.00,,,0.00,WUHU216EASYWX,2013-03-31 23:33:00,
2013-03-31 18:38:00,72.0,41.4,29.93,NE,45,2.2,5.4,33,0.00,,,0.00,WUHU216EASYWX,2013-03-31 23:38:00,
2013-03-31 18:43:00,72.1,41.5,29.93,East,90,2.2,5.4,33,0.00,,,0.00,WUHU216EASYWX,2013-03-31 23:43:00,
2013-03-31 18:48:00,72.0,41.4,29.93,North,0,0.7,4.5,33,0.00,,,0.00,WUHU216EASYWX,2013-03-31 23:48:00,
2013-03-31 18:53:00,73.4,41.0,29.93,East,90,0.7,3.1,31,0.00,,,0.00,WUHU216EASYWX,2013-03-31 23:53:00,
2013-03-31 18:58:00,73.2,40.8,29.93,East,90,0.7,3.1,31,0.00,,,0.00,WUHU216EASYWX,2013-03-31 23:58:00,
2013-03-31 19:03:00,73.6,41.2,29.93,North,0,0.7,3.1,31,0.00,,,0.00,WUHU216EASYWX,2013-04-01 00:03:00,
2013-03-31 19:08:00,73.6,41.2,29.93,North,0,0.7,3.1,31,0.00,,,0.00,WUHU216EASYWX,2013-04-01 00:08:00,
2013-03-31 19:13:00,72.0,41.4,29.93,East,90,0.7,5.4,33,0.00,,,0.00,WUHU216EASYWX,2013-04-01 00:13:00,
2013-03-31 19:18:00,71.2,41.5,29.93,NE,45,0.7,5.4,34,0.00,,,0.00,WUHU216EASYWX,2013-04-01 00:18:00,
2013-03-31 19:23:00,70.5,41.5,29.93,NE,45,2.2,4.5,35,0.00,,,0.00,WUHU216EASYWX,2013-04-01 00:23:00,
2013-03-31 19:28:00,69.8,41.7,29.92,NE,45,2.2,4.5,36,0.00,,,0.00,WUHU216EASYWX,2013-04-01 00:28:00,
2013-03-31 19:33:00,69.3,41.9,29.92,NE,45,2.2,4.5,37,0.00,,,0.00,WUHU216EASYWX,2013-04-01 00:33:00,
2013-03-31 19:38:00,68.7,42.1,29.93,East,90,0.7,4.5,38,0.00,,,0.00,WUHU216EASYWX,2013-04-01 00:38:00,
2013-03-31 19:43:00,68.5,42.6,29.93,NE,45,1.6,3.1,39,0.00,,,0.00,WUHU216EASYWX,2013-04-01 00:43:00,
2013-03-31 19:48:00,68.0,42.3,29.93,NE,45,0.0,3.1,39,0.00,,,0.00,WUHU216EASYWX,2013-04-01 00:48:00,
2013-03-31 19:53:00,67.6,42.4,29.93,East,90,0.7,1.6,40,0.00,,,0.00,WUHU216EASYWX,2013-04-01 00:53:00,
2013-03-31 19:58:00,67.1,42.6,29.93,East,90,0.0,1.6,41,0.00,,,0.00,WUHU216EASYWX,2013-04-01 00:58:00,
2013-03-31 20:03:00,66.7,42.3,29.93,NE,45,0.7,2.2,41,0.00,,,0.00,WUHU216EASYWX,2013-04-01 01:03:00,
2013-03-31 20:08:00,66.7,42.3,29.93,NE,45,0.7,2.2,41,0.00,,,0.00,WUHU216EASYWX,2013-04-01 01:08:00,
2013-03-31 20:13:00,66.0,42.3,29.93,NE,45,1.6,3.1,42,0.00,,,0.00,WUHU216EASYWX,2013-04-01 01:13:00,
2013-03-31 20:18:00,65.7,42.6,29.93,NE,45,0.7,3.1,43,0.00,,,0.00,WUHU216EASYWX,2013-04-01 01:18:00,
2013-03-31 20:23:00,65.5,43.0,29.94,NE,45,0.0,1.6,44,0.00,,,0.00,WUHU216EASYWX,2013-04-01 01:23:00,
2013-03-31 20:28:00,64.8,43.0,29.94,SW,225,0.0,0.7,45,0.00,,,0.00,WUHU216EASYWX,2013-04-01 01:28:00,
2013-03-31 20:33:00,64.4,43.2,29.94,East,90,0.0,0.0,46,0.00,,,0.00,WUHU216EASYWX,2013-04-01 01:33:00,
2013-03-31 20:38:00,63.9,44.4,29.95,East,90,0.7,1.6,49,0.00,,,0.00,WUHU216EASYWX,2013-04-01 01:38:00,
2013-03-31 20:43:00,63.5,44.1,29.95,East,90,0.7,1.6,49,0.00,,,0.00,WUHU216EASYWX,2013-04-01 01:43:00,
2013-03-31 20:48:00,63.0,44.6,29.95,SE,135,0.0,1.6,51,0.00,,,0.00,WUHU216EASYWX,2013-04-01 01:48:00,
2013-03-31 20:53:00,62.4,44.1,29.95,East,90,0.0,0.7,51,0.00,,,0.00,WUHU216EASYWX,2013-04-01 01:53:00,
2013-03-31 20:58:00,61.9,44.1,29.95,SE,135,0.0,0.7,52,0.00,,,0.00,WUHU216EASYWX,2013-04-01 01:58:00,
2013-03-31 21:03:00,61.5,43.7,29.95,NW,315,0.0,0.7,52,0.00,,,0.00,WUHU216EASYWX,2013-04-01 02:03:00,
2013-03-31 21:08:00,61.5,43.7,29.96,NW,315,0.0,0.0,52,0.00,,,0.00,WUHU216EASYWX,2013-04-01 02:08:00,
2013-03-31 21:13:00,61.0,45.1,29.96,South,180,0.0,1.6,56,0.00,,,0.00,WUHU216EASYWX,2013-04-01 02:13:00,
2013-03-31 21:18:00,60.6,45.3,29.96,East,90,0.7,1.6,57,0.00,,,0.00,WUHU216EASYWX,2013-04-01 02:18:00,
2013-03-31 21:23:00,60.4,44.8,29.96,East,90,0.7,1.6,56,0.00,,,0.00,WUHU216EASYWX,2013-04-01 02:23:00,
2013-03-31 21:28:00,60.1,44.8,29.96,East,90,0.0,1.6,57,0.00,,,0.00,WUHU216EASYWX,2013-04-01 02:28:00,
2013-03-31 21:33:00,59.7,45.0,29.97,East,90,0.0,0.7,58,0.00,,,0.00,WUHU216EASYWX,2013-04-01 02:33:00,
2013-03-31 21:38:00,59.2,45.0,29.97,East,90,0.0,1.6,59,0.00,,,0.00,WUHU216EASYWX,2013-04-01 02:38:00,
2013-03-31 21:43:00,60.8,46.4,29.97,ENE,68,0.0,1.6,59,0.00,,,0.00,WUHU216EASYWX,2013-04-01 02:43:00,
2013-03-31 21:48:00,59.0,45.1,29.97,East,90,0.0,1.6,60,0.00,,,0.00,WUHU216EASYWX,2013-04-01 02:48:00,
2013-03-31 21:53:00,58.6,44.8,29.97,East,90,0.0,0.7,60,0.00,,,0.00,WUHU216EASYWX,2013-04-01 02:53:00,
2013-03-31 21:58:00,58.3,45.0,29.97,SE,135,0.0,0.0,61,0.00,,,0.00,WUHU216EASYWX,2013-04-01 02:58:00,
2013-03-31 22:03:00,57.9,45.0,29.98,East,90,0.0,0.7,62,0.00,,,0.00,WUHU216EASYWX,2013-04-01 03:03:00,
2013-03-31 22:08:00,57.9,44.6,29.98,East,90,0.0,0.7,61,0.00,,,0.00,WUHU216EASYWX,2013-04-01 03:08:00,
2013-03-31 22:13:00,57.4,44.4,29.98,South,180,0.0,0.7,62,0.00,,,0.00,WUHU216EASYWX,2013-04-01 03:13:00,
2013-03-31 22:19:00,56.8,44.4,29.98,South,180,0.7,1.6,63,0.00,,,0.00,WUHU216EASYWX,2013-04-01 03:19:00,
2013-03-31 22:24:00,57.0,44.2,29.98,East,90,0.7,2.2,62,0.00,,,0.00,WUHU216EASYWX,2013-04-01 03:24:00,
2013-03-31 22:29:00,56.8,44.1,29.99,East,90,0.0,2.2,62,0.00,,,0.00,WUHU216EASYWX,2013-04-01 03:29:00,
2013-03-31 22:34:00,56.3,43.5,29.99,East,90,0.0,0.7,62,0.00,,,0.00,WUHU216EASYWX,2013-04-01 03:34:00,
2013-03-31 22:39:00,56.1,44.1,29.99,East,90,0.0,0.0,64,0.00,,,0.00,WUHU216EASYWX,2013-04-01 03:39:00,
2013-03-31 22:44:00,55.9,44.4,29.99,East,90,0.7,1.6,65,0.00,,,0.00,WUHU216EASYWX,2013-04-01 03:44:00,
2013-03-31 22:49:00,55.8,44.6,29.99,East,90,0.7,1.6,66,0.00,,,0.00,WUHU216EASYWX,2013-04-01 03:49:00,
2013-03-31 22:54:00,55.6,44.8,29.99,NE,45,0.0,1.6,67,0.00,,,0.00,WUHU216EASYWX,2013-04-01 03:54:00,
2013-03-31 22:59:00,55.2,44.1,29.99,South,180,0.0,1.6,66,0.00,,,0.00,WUHU216EASYWX,2013-04-01 03:59:00,
2013-03-31 23:04:00,54.9,44.1,29.99,SE,135,0.0,0.0,67,0.00,,,0.00,WUHU216EASYWX,2013-04-01 04:04:00,
2013-03-31 23:09:00,54.9,44.1,29.99,SE,135,0.0,0.0,67,0.00,,,0.00,WUHU216EASYWX,2013-04-01 04:09:00,
2013-03-31 23:14:00,54.7,44.8,29.99,East,90,0.0,1.6,69,0.00,,,0.00,WUHU216EASYWX,2013-04-01 04:14:00,
2013-03-31 23:19:00,54.5,44.6,30.00,East,90,0.7,1.6,69,0.00,,,0.00,WUHU216EASYWX,2013-04-01 04:19:00,
2013-03-31 23:24:00,54.3,44.4,29.99,NE,45,0.0,1.6,69,0.00,,,0.00,WUHU216EASYWX,2013-04-01 04:24:00,
2013-03-31 23:29:00,54.1,44.6,29.99,East,90,0.7,2.2,70,0.00,,,0.00,WUHU216EASYWX,2013-04-01 04:29:00,
2013-03-31 23:34:00,54.0,44.4,29.99,East,90,0.7,2.2,70,0.00,,,0.00,WUHU216EASYWX,2013-04-01 04:34:00,
2013-03-31 23:39:00,53.8,44.2,30.00,East,90,1.6,2.2,70,0.00,,,0.00,WUHU216EASYWX,2013-04-01 04:39:00,
2013-03-31 23:44:00,53.6,44.1,29.99,East,90,0.0,2.2,70,0.00,,,0.00,WUHU216EASYWX,2013-04-01 04:44:00,
2013-03-31 23:49:00,53.6,44.1,29.99,East,90,0.0,0.0,70,0.00,,,0.00,WUHU216EASYWX,2013-04-01 04:49:00,
2013-03-31 23:55:00,53.1,44.2,29.99,SE,135,0.7,2.2,72,0.00,,,0.00,WUHU216EASYWX,2013-04-01 04:55:00,